Hovedside
METAR-TAF:

METAR-TAF

Lufthavner :

George, Sør-Afrika

breddegrad: 34-00S, lengdegrad: 022-23E, høyde over havet: 193 m

Gjeldene værobservasjon

Denne rapporten ble laget for 23 minutter siden, klokken 03:00 UTC
Vind 4 kt fra Nord-nordvest
Temperatur 11°C
Luftfuktighet 71%
Trykk 1020 hPa
Sikt 10 km eller mer
ingen skyer under 1500 m og ingen bygeskyer

METAR: FAGG 140300Z 34004KT CAVOK 11/06 Q1020

Tid: 05:23 (03:23 UTC)

Varsel

Denne rapporten ble laget for 5 timer og 23 minutter siden, klokken 22:00 UTC
Varsel gyldig fra 14. klokken 00 UTC til 14. klokken 24 UTC
Vind 3 kt fra skiftende retning
Sikt 10 km eller mer
ingen skyer under 1500 m og ingen bygeskyer
Blir
fra 14. klokken 12 UTC til 14. klokken 14 UTC
Vind 15 kt fra Sørvest
Blir
fra 14. klokken 16 UTC til 14. klokken 18 UTC
Vind 5 kt fra Nordvest

TAF: FAGG 132200Z 1400/1424 VRB03KT CAVOK TX23/1412Z TN09/1406Z BECMG 1412/1414 23015KT BECMG 1416/1418 32005KT

Værobservasjoner og værvarsel for over 4000 flyplasser (METAR- og TAF-rapporter).

Tilgjengelige stasjoner er representert av de røde og gule prikkene på kartet.

Hold musepekeren over prikken for å se navnet på stasjonen.

Klikk så for å se værobservasjoner og -varsler.

For å forandre kartet kan du klikke på den grønne knappen med svart kryss for å zoome inn, på den grønne knappen med strek for å zoome ut, eller på de grønne pilene for å se tilstøtende kart.


METAR-TAF: